Time;durP1;ratioP1;P1;durP2;ratioP2;P2;SDS_P1;SDS_P2;PMS_P1;PMS_P2;Temp;Humidity;BMP_temperature;BMP_pressure;BME280_temperature;BME280_humidity;BME280_pressure;Samples;Min_cycle;Max_cycle;Signal;HPM_P1;HPM_P2
2023/10/26 00:00:48;;;;;;;0.35;0.30;;;;;;;12.56;72.90;94961.81;4806718;29;20145;-76
2023/10/26 00:03:17;;;;;;;0.95;0.28;;;;;;;12.55;72.73;94965.44;4806486;29;20073;-76
2023/10/26 00:05:44;;;;;;;1.48;0.25;;;;;;;12.55;74.56;94960.19;4806448;29;20070;-76
2023/10/26 00:08:12;;;;;;;1.13;0.20;;;;;;;12.54;73.60;94953.41;4806456;29;20058;-76
2023/10/26 00:10:40;;;;;;;0.65;0.20;;;;;;;12.53;74.18;94959.66;4806379;29;20162;-76
2023/10/26 00:13:08;;;;;;;0.90;0.50;;;;;;;12.55;73.75;94954.97;4806453;29;20141;-76
2023/10/26 00:15:38;;;;;;;0.57;0.30;;;;;;;12.54;73.38;94954.19;4806174;29;20069;-76
2023/10/26 00:18:06;;;;;;;0.50;0.30;;;;;;;12.54;74.60;94953.41;4806278;29;20051;-76
2023/10/26 00:20:35;;;;;;;2.15;0.40;;;;;;;12.51;74.21;94949.44;4806179;29;20066;-76
2023/10/26 00:23:03;;;;;;;1.38;0.47;;;;;;;12.51;73.99;94946.03;4806024;29;20489;-76
2023/10/26 00:25:30;;;;;;;0.52;0.35;;;;;;;12.49;73.70;94946.25;4805767;29;20512;-76
2023/10/26 00:27:58;;;;;;;0.25;0.20;;;;;;;12.48;73.37;94947.25;4806084;29;20061;-76
2023/10/26 00:30:26;;;;;;;0.52;0.30;;;;;;;12.47;72.66;94950.13;4806119;29;20551;-76
2023/10/26 00:32:54;;;;;;;0.65;0.38;;;;;;;12.46;72.62;94948.53;4805885;29;20061;-76
2023/10/26 00:35:21;;;;;;;0.20;0.20;;;;;;;12.47;73.91;94947.53;4806054;29;20414;-76
2023/10/26 00:37:51;;;;;;;2.05;0.20;;;;;;;12.47;71.32;94953.53;4805942;29;20170;-77
2023/10/26 00:40:18;;;;;;;1.02;0.20;;;;;;;12.47;72.23;94952.75;4806029;29;20057;-76
2023/10/26 00:42:46;;;;;;;1.45;0.50;;;;;;;12.49;71.69;94966.38;4805719;29;20054;-76
2023/10/26 00:45:13;;;;;;;1.55;0.25;;;;;;;12.49;72.08;94956.72;4805251;29;20054;-76
2023/10/26 00:47:42;;;;;;;1.17;0.28;;;;;;;12.48;70.58;94968.19;4806009;29;20208;-76
2023/10/26 00:50:10;;;;;;;0.43;0.15;;;;;;;12.48;71.77;94968.19;4805843;29;20057;-76
2023/10/26 00:52:39;;;;;;;2.00;0.52;;;;;;;12.50;73.45;94957.50;4805640;29;20476;-76
2023/10/26 00:55:09;;;;;;;1.10;0.40;;;;;;;12.53;75.04;94962.28;4805776;29;20130;-76
2023/10/26 00:57:37;;;;;;;1.15;0.20;;;;;;;12.54;73.49;94966.47;4805538;29;20054;-76
2023/10/26 01:00:07;;;;;;;0.85;0.22;;;;;;;12.54;73.72;94963.84;4805596;29;20090;-76
2023/10/26 01:02:36;;;;;;;0.85;0.20;;;;;;;12.54;73.03;94966.47;4806858;29;20055;-76
2023/10/26 01:05:04;;;;;;;0.70;0.30;;;;;;;12.51;73.65;94964.34;4805313;29;20397;-76
2023/10/26 01:07:31;;;;;;;1.27;0.60;;;;;;;12.50;72.58;94967.97;4805678;29;20062;-77
2023/10/26 01:09:59;;;;;;;4.30;0.88;;;;;;;12.49;71.29;94967.19;4805571;29;20131;-77
2023/10/26 01:12:28;;;;;;;0.65;0.28;;;;;;;12.50;74.03;94971.38;4805475;29;20054;-76
2023/10/26 01:14:56;;;;;;;0.13;0.13;;;;;;;12.50;71.86;94958.28;4805383;29;20130;-77
2023/10/26 01:17:24;;;;;;;6.03;0.75;;;;;;;12.52;71.53;94965.91;4805553;29;20073;-76
2023/10/26 01:19:52;;;;;;;0.85;0.20;;;;;;;12.52;70.89;94963.28;4805577;29;20117;-76
2023/10/26 01:22:21;;;;;;;0.68;0.20;;;;;;;12.51;71.41;94965.13;4805368;29;20057;-76
2023/10/26 01:24:49;;;;;;;0.60;0.30;;;;;;;12.50;71.40;94963.53;4805345;29;20051;-76
2023/10/26 01:27:16;;;;;;;2.20;0.40;;;;;;;12.53;72.71;94972.75;4805073;29;20070;-76
2023/10/26 01:29:44;;;;;;;0.95;0.38;;;;;;;12.53;70.86;94967.50;4805408;29;20058;-76
2023/10/26 01:32:11;;;;;;;0.40;0.30;;;;;;;12.54;72.91;94969.88;4805054;29;20500;-76
2023/10/26 01:34:39;;;;;;;0.65;0.30;;;;;;;12.56;71.87;94967.03;4805253;29;20061;-76
2023/10/26 01:37:07;;;;;;;0.75;0.30;;;;;;;12.54;70.34;94963.84;4805014;29;20080;-76
2023/10/26 01:39:36;;;;;;;0.77;0.30;;;;;;;12.54;72.66;94969.88;4805393;29;20145;-76
2023/10/26 01:42:06;;;;;;;0.50;0.38;;;;;;;12.54;71.29;94958.63;4804942;29;20058;-76
2023/10/26 01:44:33;;;;;;;2.53;0.28;;;;;;;12.52;70.54;94960.69;4805265;29;20082;-76
2023/10/26 01:47:01;;;;;;;1.23;0.30;;;;;;;12.52;70.99;94961.47;4804965;29;20145;-76
2023/10/26 01:49:28;;;;;;;0.40;0.30;;;;;;;12.52;70.83;94960.69;4805129;29;20138;-76
2023/10/26 01:51:57;;;;;;;0.80;0.30;;;;;;;12.54;72.48;94964.63;4804796;29;20595;-76
2023/10/26 01:54:24;;;;;;;1.77;0.40;;;;;;;12.55;74.27;94961.00;4804805;29;20154;-77
2023/10/26 01:56:53;;;;;;;0.98;0.38;;;;;;;12.54;72.03;94961.25;4805524;29;20507;-76
2023/10/26 01:59:21;;;;;;;3.35;0.32;;;;;;;12.51;70.76;94953.88;4808849;29;20062;-76
2023/10/26 02:01:48;;;;;;;0.82;0.35;;;;;;;12.51;72.52;94953.88;4808766;29;20110;-76
2023/10/26 02:04:16;;;;;;;0.90;0.30;;;;;;;12.49;73.07;94955.94;4808575;29;20137;-76
2023/10/26 02:06:43;;;;;;;0.52;0.20;;;;;;;12.51;73.14;94961.72;4808419;29;20517;-76
2023/10/26 02:09:11;;;;;;;0.25;0.20;;;;;;;12.52;73.16;94963.28;4817880;29;20058;-77
2023/10/26 02:11:38;;;;;;;1.27;0.70;;;;;;;12.51;72.82;94964.34;4808400;29;20412;-76
2023/10/26 02:14:07;;;;;;;0.55;0.22;;;;;;;12.50;71.88;94963.53;4820499;29;20062;-76
2023/10/26 02:16:35;;;;;;;1.20;0.40;;;;;;;12.48;70.64;94956.94;4823468;29;20051;-76
2023/10/26 02:19:02;;;;;;;0.75;0.20;;;;;;;12.48;71.88;94960.34;4812775;29;20527;-76
2023/10/26 02:21:30;;;;;;;0.75;0.30;;;;;;;12.46;70.67;94959.00;4808431;29;20066;-76
2023/10/26 02:23:58;;;;;;;1.08;0.40;;;;;;;12.45;70.08;94965.25;4808005;29;20145;-76
2023/10/26 02:26:25;;;;;;;1.00;0.22;;;;;;;12.44;70.40;94954.00;4808001;29;20047;-76
2023/10/26 02:28:53;;;;;;;1.75;0.40;;;;;;;12.44;69.62;94953.19;4808554;29;20181;-76
2023/10/26 02:31:22;;;;;;;0.63;0.47;;;;;;;12.42;72.89;94956.06;4808153;29;20111;-76
2023/10/26 02:33:49;;;;;;;0.63;0.30;;;;;;;12.42;75.04;94950.84;4807940;29;20055;-76
2023/10/26 02:36:17;;;;;;;1.70;0.30;;;;;;;12.40;72.20;94955.50;4807866;29;20051;-76
2023/10/26 02:38:44;;;;;;;0.73;0.43;;;;;;;12.39;74.19;94945.28;4808020;29;20590;-76
2023/10/26 02:41:12;;;;;;;1.95;0.50;;;;;;;12.36;72.93;94947.31;4807834;29;20090;-76
2023/10/26 02:43:39;;;;;;;2.97;0.40;;;;;;;12.36;73.77;94947.31;4807882;29;20061;-76
2023/10/26 02:46:08;;;;;;;0.95;0.35;;;;;;;12.36;74.55;94947.31;4807542;29;20491;-76
2023/10/26 02:48:37;;;;;;;0.38;0.30;;;;;;;12.36;73.84;94952.56;4807925;29;20142;-76
2023/10/26 02:51:05;;;;;;;0.68;0.40;;;;;;;12.35;74.37;94950.16;4807770;29;20595;-76
2023/10/26 02:53:33;;;;;;;4.38;0.85;;;;;;;12.32;72.84;94959.28;4807384;29;20512;-76
2023/10/26 02:56:01;;;;;;;1.02;0.50;;;;;;;12.32;73.71;94956.66;4810480;29;20089;-77
2023/10/26 02:58:28;;;;;;;0.68;0.30;;;;;;;12.30;74.20;94953.47;4812029;29;20089;-76
2023/10/26 03:00:56;;;;;;;0.73;0.50;;;;;;;12.30;73.85;94953.47;4812775;29;20145;-77
2023/10/26 03:03:24;;;;;;;0.38;0.20;;;;;;;12.28;73.21;94950.28;4813073;29;20074;-76
2023/10/26 03:05:53;;;;;;;1.38;0.60;;;;;;;12.29;73.11;94957.13;4807557;29;20051;-76
2023/10/26 03:08:20;;;;;;;0.60;0.50;;;;;;;12.27;71.74;94953.16;4807548;29;20336;-76
2023/10/26 03:10:48;;;;;;;0.57;0.20;;;;;;;12.27;72.55;94953.94;4807848;29;20104;-76
2023/10/26 03:13:16;;;;;;;1.60;0.40;;;;;;;12.26;73.72;94960.19;4807337;29;20137;-76
2023/10/26 03:15:43;;;;;;;0.77;0.30;;;;;;;12.24;71.85;94959.63;4807128;29;20050;-76
2023/10/26 03:18:11;;;;;;;0.95;0.30;;;;;;;12.26;74.08;94956.78;4807186;29;20097;-77
2023/10/26 03:20:39;;;;;;;0.80;0.28;;;;;;;12.26;73.09;94973.25;4807757;29;20413;-76
2023/10/26 03:23:07;;;;;;;0.90;0.52;;;;;;;12.24;73.23;94966.69;4808096;29;20139;-77
2023/10/26 03:25:35;;;;;;;0.68;0.40;;;;;;;12.25;73.13;94976.91;4807551;29;20057;-77
2023/10/26 03:28:02;;;;;;;1.55;0.45;;;;;;;12.26;74.31;94973.25;4807462;29;20093;-76
2023/10/26 03:30:30;;;;;;;0.85;0.20;;;;;;;12.29;75.40;94967.59;4807211;29;20073;-76
2023/10/26 03:32:58;;;;;;;1.50;0.40;;;;;;;12.28;73.65;94973.81;4807048;29;20119;-76
2023/10/26 03:35:25;;;;;;;1.67;0.55;;;;;;;12.28;73.11;94971.22;4806993;29;20468;-76
2023/10/26 03:37:53;;;;;;;2.15;0.75;;;;;;;12.28;74.17;94971.22;4807075;29;20061;-76
2023/10/26 03:40:21;;;;;;;0.88;0.43;;;;;;;12.29;72.43;94969.41;4806856;29;20512;-76
2023/10/26 03:42:49;;;;;;;0.90;0.30;;;;;;;12.31;74.97;94962.91;4806645;29;20055;-76
2023/10/26 03:45:17;;;;;;;0.43;0.43;;;;;;;12.30;72.83;94963.16;4806773;29;20138;-76
2023/10/26 03:47:45;;;;;;;0.63;0.25;;;;;;;12.31;74.44;94955.06;4807225;29;20055;-76
2023/10/26 03:50:12;;;;;;;2.22;0.50;;;;;;;12.31;72.38;94962.09;4806988;29;20412;-76
2023/10/26 03:52:40;;;;;;;0.25;0.20;;;;;;;12.32;73.57;94963.72;4806390;29;20507;-76
2023/10/26 03:55:08;;;;;;;0.80;0.35;;;;;;;12.29;72.98;94962.34;4806380;29;20154;-76
2023/10/26 03:57:37;;;;;;;0.70;0.40;;;;;;;12.28;71.85;94958.13;4806468;29;20423;-77
2023/10/26 04:00:06;;;;;;;0.20;0.20;;;;;;;12.28;71.80;94959.97;4806837;29;20495;-76
2023/10/26 04:02:33;;;;;;;0.68;0.30;;;;;;;12.30;73.63;94957.91;4806520;29;20441;-76
2023/10/26 04:05:01;;;;;;;0.68;0.20;;;;;;;12.30;71.73;94963.16;4806297;29;20491;-76
2023/10/26 04:07:28;;;;;;;0.20;0.20;;;;;;;12.28;69.91;94950.28;4806319;29;20051;-76
2023/10/26 04:09:56;;;;;;;1.23;0.20;;;;;;;12.28;72.06;94952.13;4806275;29;20090;-76
2023/10/26 04:12:23;;;;;;;2.47;0.30;;;;;;;12.27;69.86;94942.72;4805911;29;20050;-76
2023/10/26 04:14:55;;;;;;;0.65;0.38;;;;;;;12.29;71.94;94941.44;4809576;29;20082;-77
2023/10/26 04:17:23;;;;;;;0.32;0.32;;;;;;;12.29;72.07;94940.66;4812188;29;20047;-76
2023/10/26 04:19:51;;;;;;;0.75;0.32;;;;;;;12.27;70.39;94943.50;4805725;29;20063;-76
2023/10/26 04:22:18;;;;;;;2.10;0.30;;;;;;;12.25;70.96;94944.75;4806044;29;20524;-76
2023/10/26 04:24:46;;;;;;;0.43;0.10;;;;;;;12.26;71.02;94934.03;4805870;29;20101;-76
2023/10/26 04:27:13;;;;;;;0.55;0.20;;;;;;;12.26;71.73;94938.50;4805994;29;20057;-76
2023/10/26 04:29:42;;;;;;;0.20;0.20;;;;;;;12.27;70.99;94929.63;4806136;29;20055;-76
2023/10/26 04:32:11;;;;;;;0.40;0.30;;;;;;;12.28;72.56;94928.59;4805904;29;20117;-77
2023/10/26 04:34:43;;;;;;;0.15;0.10;;;;;;;12.26;71.23;94936.66;4806009;29;20061;-76
2023/10/26 04:37:11;;;;;;;;;;;;;;;12.27;71.70;94943.50;4805962;29;20057;-76
2023/10/26 04:39:43;;;;;;;0.30;0.30;;;;;;;12.25;70.92;94948.16;4808619;29;19932;-77
2023/10/26 04:42:11;;;;;;;1.48;0.40;;;;;;;12.23;71.32;94934.53;4808609;29;20093;-75
2023/10/26 04:44:38;;;;;;;0.20;0.20;;;;;;;12.23;69.84;94931.91;4803473;29;20059;-76
2023/10/26 04:47:06;;;;;;;0.10;0.10;;;;;;;12.21;68.18;94931.34;4805423;29;20138;-76
2023/10/26 04:49:35;;;;;;;1.02;0.20;;;;;;;12.20;67.43;94932.38;4788179;29;20121;-77
2023/10/26 04:52:03;;;;;;;1.00;0.20;;;;;;;12.20;67.04;94927.16;4796805;29;20119;-75
2023/10/26 04:54:30;;;;;;;1.02;0.30;;;;;;;12.22;67.53;94919.84;4789455;29;20111;-76
2023/10/26 04:56:58;;;;;;;0.70;0.40;;;;;;;12.25;69.11;94916.00;4804840;29;20053;-76
2023/10/26 04:59:26;;;;;;;0.73;0.10;;;;;;;12.25;69.02;94911.56;4805193;29;20126;-76
2023/10/26 05:01:53;;;;;;;0.30;0.20;;;;;;;12.27;68.98;94914.75;4804868;29;20536;-76
2023/10/26 05:04:21;;;;;;;0.75;0.30;;;;;;;12.26;67.57;94909.72;4804194;29;20059;-76
2023/10/26 05:06:51;;;;;;;1.65;0.55;;;;;;;12.24;66.71;94917.78;4805078;29;20143;-75
2023/10/26 05:09:18;;;;;;;0.47;0.20;;;;;;;12.25;67.55;94924.63;4816525;29;20480;-76
2023/10/26 05:11:47;;;;;;;0.60;0.32;;;;;;;12.24;66.41;94920.41;4811686;29;20639;-75
2023/10/26 05:14:14;;;;;;;0.28;0.17;;;;;;;12.24;68.54;94917.78;4811692;29;20074;-76
2023/10/26 05:16:42;;;;;;;1.70;0.25;;;;;;;12.25;66.16;94916.78;4805427;29;20137;-77
2023/10/26 05:19:09;;;;;;;0.98;0.20;;;;;;;12.26;70.23;94909.72;4804732;29;20081;-77
2023/10/26 05:21:37;;;;;;;0.22;0.22;;;;;;;12.23;67.10;94918.84;4805045;29;20046;-76
2023/10/26 05:24:07;;;;;;;0.65;0.30;;;;;;;12.21;67.05;94922.72;4804932;29;20054;-76
2023/10/26 05:26:34;;;;;;;0.55;0.10;;;;;;;12.19;66.35;94925.56;4814870;29;20326;-77
2023/10/26 05:29:03;;;;;;;0.50;0.20;;;;;;;12.20;67.90;94926.34;4821593;29;20079;-78
2023/10/26 05:31:31;;;;;;;0.60;0.20;;;;;;;12.23;68.84;94918.06;4812154;29;20078;-76
2023/10/26 05:33:59;;;;;;;0.52;0.30;;;;;;;12.26;71.02;94918.38;4805636;29;20054;-78
2023/10/26 05:36:26;;;;;;;0.50;0.40;;;;;;;12.27;70.56;94927.03;4802798;29;20127;-76
2023/10/26 05:38:54;;;;;;;2.58;0.60;;;;;;;12.21;67.42;94920.88;4803965;29;20062;-76
2023/10/26 05:41:23;;;;;;;1.00;0.30;;;;;;;12.18;68.88;94923.16;4804930;29;20105;-76
2023/10/26 05:43:50;;;;;;;0.65;0.40;;;;;;;12.18;71.52;94923.97;4805104;29;20077;-76
2023/10/26 05:46:18;;;;;;;1.27;0.45;;;;;;;12.18;69.64;94918.75;4805741;29;20145;-77
2023/10/26 05:48:46;;;;;;;0.20;0.20;;;;;;;12.16;70.66;94916.38;4804951;29;20061;-76
2023/10/26 05:51:13;;;;;;;1.33;0.32;;;;;;;12.15;68.92;94908.75;4805109;29;20051;-77
2023/10/26 05:53:41;;;;;;;1.80;0.38;;;;;;;12.15;68.28;94906.13;4805011;29;20058;-77
2023/10/26 05:56:10;;;;;;;0.47;0.30;;;;;;;12.13;67.32;94910.78;4804719;29;20531;-77
2023/10/26 05:58:39;;;;;;;1.83;0.30;;;;;;;12.16;72.19;94911.13;4805119;29;20082;-77
2023/10/26 06:01:07;;;;;;;1.13;0.65;;;;;;;12.17;72.89;94917.16;4805100;29;20059;-76
2023/10/26 06:03:35;;;;;;;0.95;0.20;;;;;;;12.16;71.21;94918.97;4805138;29;20061;-77
2023/10/26 06:06:03;;;;;;;1.33;0.35;;;;;;;12.13;69.07;94922.06;4804938;29;20523;-77
2023/10/26 06:08:31;;;;;;;0.75;0.30;;;;;;;12.16;73.17;94926.03;4804679;29;20051;-76
2023/10/26 06:10:58;;;;;;;1.33;0.28;;;;;;;12.16;74.54;94921.59;4804702;29;20567;-77
2023/10/26 06:13:26;;;;;;;1.63;0.60;;;;;;;12.20;76.02;94921.94;4804932;29;20082;-77
2023/10/26 06:15:55;;;;;;;2.05;0.50;;;;;;;12.21;76.17;94918.28;4804588;29;20134;-77
2023/10/26 06:18:22;;;;;;;1.35;0.80;;;;;;;12.17;72.09;94919.75;4804811;29;20054;-77
2023/10/26 06:20:57;;;;;;;2.72;1.23;;;;;;;12.11;68.90;94923.31;4806733;29;20440;-77
2023/10/26 06:23:26;;;;;;;6.13;1.33;;;;;;;12.10;69.27;94924.34;4807741;29;20125;-77
2023/10/26 06:25:58;;;;;;;5.55;2.00;;;;;;;12.06;68.07;94921.38;4805068;29;20094;-76
2023/10/26 06:28:25;;;;;;;5.78;1.40;;;;;;;12.04;68.49;94914.81;4805081;29;20149;-77
2023/10/26 06:30:54;;;;;;;9.20;1.75;;;;;;;12.02;68.31;94911.63;4805145;29;20112;-77
2023/10/26 06:33:24;;;;;;;6.63;1.13;;;;;;;12.04;70.83;94912.19;4805089;29;20051;-76
2023/10/26 06:35:51;;;;;;;6.97;1.42;;;;;;;12.06;69.87;94915.38;4804513;29;20178;-77
2023/10/26 06:38:19;;;;;;;2.05;1.10;;;;;;;12.06;68.90;94910.16;4804416;29;20089;-76
2023/10/26 06:40:47;;;;;;;3.92;1.48;;;;;;;12.04;68.45;94910.38;4804934;29;20149;-76
2023/10/26 06:43:14;;;;;;;5.05;2.10;;;;;;;12.03;68.33;94911.41;4805751;29;20089;-77
2023/10/26 06:45:42;;;;;;;4.82;1.60;;;;;;;12.00;67.83;94911.84;4808099;29;20137;-77
2023/10/26 06:48:11;;;;;;;4.63;1.70;;;;;;;11.97;67.41;94917.56;4808835;29;20092;-77
2023/10/26 06:50:41;;;;;;;9.07;4.73;;;;;;;11.94;68.57;94913.59;4808507;29;20504;-76
2023/10/26 06:53:10;;;;;;;10.90;6.50;;;;;;;11.88;67.87;94914.50;4809282;29;20095;-77
2023/10/26 06:55:37;;;;;;;8.95;7.03;;;;;;;11.83;67.87;94919.63;4811866;29;20133;-77
2023/10/26 06:58:05;;;;;;;12.50;7.55;;;;;;;11.77;69.17;94922.34;4811814;29;20055;-77
2023/10/26 07:00:35;;;;;;;11.13;8.13;;;;;;;11.70;69.24;94915.44;4808027;29;20121;-76
2023/10/26 07:03:03;;;;;;;8.90;6.75;;;;;;;11.66;69.17;94931.78;4807770;29;20059;-76
2023/10/26 07:05:34;;;;;;;7.60;5.57;;;;;;;11.62;70.41;94930.66;4807674;29;20526;-76
2023/10/26 07:08:01;;;;;;;5.65;4.00;;;;;;;11.59;69.65;94925.88;4807592;29;20133;-76
2023/10/26 07:10:31;;;;;;;3.53;2.65;;;;;;;11.55;69.49;94926.34;4807472;29;20494;-76
2023/10/26 07:12:59;;;;;;;2.50;1.92;;;;;;;11.51;69.33;94932.25;4807434;29;20138;-76
2023/10/26 07:15:26;;;;;;;3.20;2.05;;;;;;;11.46;69.44;94927.72;4807025;29;20057;-77
2023/10/26 07:17:55;;;;;;;1.90;1.25;;;;;;;11.44;70.61;94929.75;4807667;29;20521;-76
2023/10/26 07:20:22;;;;;;;2.08;1.40;;;;;;;11.44;70.21;94934.97;4808087;29;20150;-76
2023/10/26 07:22:52;;;;;;;2.15;1.48;;;;;;;11.46;70.58;94925.09;4807988;29;20129;-76
2023/10/26 07:25:19;;;;;;;4.28;1.90;;;;;;;11.47;70.48;94923.28;4806900;29;20074;-76
2023/10/26 07:27:47;;;;;;;5.90;2.47;;;;;;;11.47;70.43;94934.50;4806956;29;20567;-77
2023/10/26 07:30:15;;;;;;;3.70;2.88;;;;;;;11.43;69.99;94928.16;4807026;29;20130;-76
2023/10/26 07:32:43;;;;;;;4.07;3.17;;;;;;;11.41;70.20;94930.19;4807142;29;20059;-76
2023/10/26 07:35:10;;;;;;;6.22;3.97;;;;;;;11.44;71.86;94940.19;4806925;29;20446;-76
2023/10/26 07:37:38;;;;;;;10.32;5.95;;;;;;;11.45;72.35;94928.72;4807384;29;20431;-77
2023/10/26 07:40:08;;;;;;;9.05;6.18;;;;;;;11.46;73.80;94924.31;4806977;29;20149;-76
2023/10/26 07:42:56;;;;;;;9.70;5.35;;;;;;;11.42;71.95;94918.75;4806910;29;20059;-76
2023/10/26 07:45:25;;;;;;;9.23;4.63;;;;;;;11.38;71.40;94911.59;4806774;29;20084;-76
2023/10/26 07:47:53;;;;;;;9.82;5.07;;;;;;;11.37;71.07;94918.66;4807178;29;20511;-76
2023/10/26 07:50:22;;;;;;;12.57;5.75;;;;;;;11.35;70.71;94910.25;4806803;29;20499;-76
2023/10/26 07:52:50;;;;;;;9.95;4.93;;;;;;;11.33;70.85;94909.69;4806744;29;20059;-76
2023/10/26 07:55:19;;;;;;;8.05;5.00;;;;;;;11.32;70.66;94911.47;4805563;29;20090;-76
2023/10/26 07:57:47;;;;;;;8.23;4.40;;;;;;;11.32;70.48;94910.69;4806950;29;20047;-76
2023/10/26 08:00:15;;;;;;;8.27;4.72;;;;;;;11.34;71.65;94914.66;4806937;29;20082;-76
2023/10/26 08:02:43;;;;;;;10.77;4.72;;;;;;;11.41;74.68;94919.75;4806642;29;20511;-76
2023/10/26 08:05:12;;;;;;;11.20;4.65;;;;;;;11.44;72.68;94914.09;4806502;29;20055;-77
2023/10/26 08:07:40;;;;;;;8.32;4.10;;;;;;;11.45;71.90;94905.22;4806375;29;20055;-76
2023/10/26 08:10:09;;;;;;;8.15;4.18;;;;;;;11.48;73.06;94912.63;4806593;29;20094;-76
2023/10/26 08:12:38;;;;;;;7.07;3.95;;;;;;;11.56;74.85;94901.00;4806686;29;20483;-77
2023/10/26 08:15:07;;;;;;;10.10;4.63;;;;;;;11.59;73.06;94904.97;4806116;29;20153;-77
2023/10/26 08:17:55;;;;;;;8.57;4.35;;;;;;;11.63;75.23;94912.16;4806547;29;20058;-76
2023/10/26 08:20:23;;;;;;;8.77;4.07;;;;;;;11.64;73.17;94915.56;4806177;29;20058;-77
2023/10/26 08:22:50;;;;;;;12.00;5.28;;;;;;;11.66;72.50;94914.28;4806278;29;20063;-76
2023/10/26 08:25:18;;;;;;;9.23;4.63;;;;;;;11.68;71.91;94911.47;4806002;29;20058;-77
2023/10/26 08:27:53;;;;;;;9.07;4.90;;;;;;;11.69;71.71;94902.59;4810413;29;20065;-76
2023/10/26 08:30:20;;;;;;;10.50;6.07;;;;;;;11.70;71.53;94901.59;4811212;29;20141;-77
2023/10/26 08:32:49;;;;;;;10.80;5.95;;;;;;;11.73;72.57;94911.56;4806260;29;20058;-77
2023/10/26 08:35:18;;;;;;;11.57;6.50;;;;;;;11.77;72.01;94904.84;4806125;29;20118;-76
2023/10/26 08:37:45;;;;;;;10.90;6.40;;;;;;;11.78;71.68;94903.81;4806068;29;20063;-76
2023/10/26 08:40:13;;;;;;;9.88;5.25;;;;;;;11.82;74.03;94898.94;4822092;29;20063;-77
2023/10/26 08:42:43;;;;;;;7.70;4.28;;;;;;;11.87;75.85;94899.03;4823282;29;20118;-77
2023/10/26 08:45:20;;;;;;;6.28;4.00;;;;;;;11.92;76.97;94909.63;4822706;29;20074;-77
2023/10/26 08:47:49;;;;;;;5.90;3.70;;;;;;;11.95;76.66;94899.47;4809666;29;20050;-77
2023/10/26 08:50:20;;;;;;;8.18;3.78;;;;;;;11.99;77.12;94909.50;4806122;29;20328;-76
2023/10/26 08:52:48;;;;;;;7.40;3.33;;;;;;;11.99;76.57;94904.28;4806117;29;20062;-76
2023/10/26 08:55:16;;;;;;;7.03;4.45;;;;;;;12.02;74.96;94903.78;4805750;29;20086;-77
2023/10/26 08:57:47;;;;;;;10.38;5.25;;;;;;;12.03;75.39;94900.97;4806146;29;20112;-76
2023/10/26 09:00:17;;;;;;;6.53;3.40;;;;;;;12.04;73.55;94902.53;4806291;29;20057;-76
2023/10/26 09:02:45;;;;;;;6.00;4.07;;;;;;;12.07;73.38;94898.66;4805936;29;20054;-76
2023/10/26 09:05:13;;;;;;;5.07;3.22;;;;;;;12.12;75.49;94909.22;4805856;29;20058;-76
2023/10/26 09:07:41;;;;;;;3.10;2.30;;;;;;;12.19;75.81;94924.78;4805971;29;20059;-76
2023/10/26 09:10:10;;;;;;;3.08;1.20;;;;;;;12.22;75.19;94937.38;4805874;29;20526;-76
2023/10/26 09:12:37;;;;;;;2.67;1.17;;;;;;;12.24;76.20;94936.09;4805986;29;20047;-77
2023/10/26 09:15:06;;;;;;;2.00;0.80;;;;;;;12.28;77.45;94939.06;4805783;29;20054;-76
2023/10/26 09:17:36;;;;;;;0.70;0.55;;;;;;;12.30;76.50;94940.41;4805679;29;20055;-77
2023/10/26 09:20:17;;;;;;;1.40;0.52;;;;;;;12.31;75.63;94936.78;4805557;29;20108;-76
2023/10/26 09:22:45;;;;;;;0.98;0.77;;;;;;;12.32;75.79;94925.28;4805591;29;20051;-76
2023/10/26 09:25:14;;;;;;;4.65;1.17;;;;;;;12.36;75.28;94936.06;4805702;29;20054;-76
2023/10/26 09:27:43;;;;;;;1.02;0.68;;;;;;;12.42;77.11;94929.09;4805979;29;20089;-77
2023/10/26 09:30:26;;;;;;;2.13;0.95;;;;;;;12.45;76.18;94929.44;4805459;29;20093;-76
2023/10/26 09:32:57;;;;;;;0.93;0.88;;;;;;;12.50;77.09;94939.19;4805360;29;20508;-76
2023/10/26 09:35:26;;;;;;;1.05;0.63;;;;;;;12.54;77.01;94937.69;4805692;29;20086;-76
2023/10/26 09:37:54;;;;;;;1.08;0.40;;;;;;;12.56;77.54;94933.03;4805809;29;20058;-77
2023/10/26 09:40:22;;;;;;;2.35;0.60;;;;;;;12.58;78.01;94933.59;4806042;29;20066;-76
2023/10/26 09:42:51;;;;;;;1.55;0.40;;;;;;;12.57;76.18;94929.38;4805026;29;20051;-76
2023/10/26 09:45:19;;;;;;;0.25;0.25;;;;;;;12.56;76.72;94933.03;4804670;29;20234;-77
2023/10/26 09:47:47;;;;;;;0.93;0.38;;;;;;;12.56;75.35;94925.19;4805733;29;20055;-77
2023/10/26 09:50:17;;;;;;;2.08;0.57;;;;;;;12.60;75.95;94928.91;4806232;29;20054;-77
2023/10/26 09:52:45;;;;;;;1.10;0.50;;;;;;;12.66;77.08;94924.56;4805471;29;20058;-77
2023/10/26 09:55:13;;;;;;;0.45;0.30;;;;;;;12.71;76.48;94935.91;4805176;29;20055;-76
2023/10/26 09:57:45;;;;;;;3.13;0.50;;;;;;;12.76;77.17;94937.81;4805372;29;20517;-76
2023/10/26 10:00:14;;;;;;;0.45;0.43;;;;;;;12.77;75.16;94937.59;4805026;29;20061;-76
2023/10/26 10:02:42;;;;;;;1.27;0.40;;;;;;;12.76;73.97;94935.19;4805242;29;20077;-76
2023/10/26 10:05:38;;;;;;;0.70;0.35;;;;;;;12.74;73.69;94953.75;4805200;29;20058;-77
2023/10/26 10:08:06;;;;;;;0.57;0.28;;;;;;;12.72;72.43;94945.34;4805439;29;20150;-76
2023/10/26 10:10:35;;;;;;;4.68;0.90;;;;;;;12.72;72.09;94947.94;4804760;29;20408;-76
2023/10/26 10:13:03;;;;;;;1.65;0.30;;;;;;;12.74;74.26;94948.50;4805233;29;20059;-76
2023/10/26 10:15:35;;;;;;;1.02;0.28;;;;;;;12.76;74.98;94951.69;4805764;29;20054;-77
2023/10/26 10:18:10;;;;;;;0.57;0.22;;;;;;;12.80;75.45;94943.38;4806899;29;20059;-76
2023/10/26 10:20:41;;;;;;;1.40;0.20;;;;;;;12.81;75.58;94947.56;4808732;29;20055;-76
2023/10/26 10:23:09;;;;;;;2.47;0.47;;;;;;;12.82;76.69;94930.84;4808499;29;20051;-76
2023/10/26 10:26:01;;;;;;;0.30;0.30;;;;;;;12.86;78.11;94926.75;4808160;29;20097;-76
2023/10/26 10:28:47;;;;;;;2.22;0.82;;;;;;;12.87;78.03;94925.69;4808517;29;20138;-76
2023/10/26 10:31:23;;;;;;;2.05;0.40;;;;;;;12.87;76.05;94944.00;4808627;29;20137;-76
2023/10/26 10:34:02;;;;;;;0.57;0.30;;;;;;;12.89;78.28;94936.72;4808665;29;20147;-76
2023/10/26 10:37:14;;;;;;;0.82;0.20;;;;;;;12.91;79.15;94942.53;4816312;29;20051;-76
2023/10/26 10:40:11;;;;;;;0.55;0.30;;;;;;;12.89;76.49;94928.88;4808193;29;20050;-76
2023/10/26 10:42:40;;;;;;;0.55;0.28;;;;;;;12.90;77.10;94935.69;4807734;29;20067;-76
2023/10/26 10:45:12;;;;;;;0.30;0.20;;;;;;;12.93;79.27;94937.84;4807793;29;20539;-76
2023/10/26 10:47:40;;;;;;;1.83;1.17;;;;;;;12.93;78.21;94949.09;4808226;29;20062;-76
2023/10/26 10:50:18;;;;;;;2.50;0.60;;;;;;;12.94;79.31;94952.50;4808225;29;20078;-76
2023/10/26 10:52:48;;;;;;;1.25;0.70;;;;;;;12.91;78.02;94937.28;4807943;29;20087;-76
2023/10/26 10:55:20;;;;;;;0.85;0.55;;;;;;;12.86;76.91;94939.81;4807791;29;20051;-76
2023/10/26 10:57:55;;;;;;;1.83;0.30;;;;;;;12.80;76.02;94946.78;4807858;29;20060;-76
2023/10/26 11:00:23;;;;;;;0.85;0.35;;;;;;;12.76;78.17;94941.22;4807532;29;20050;-76
2023/10/26 11:02:56;;;;;;;3.15;0.45;;;;;;;12.76;77.97;94909.03;4807879;29;20047;-76
2023/10/26 11:05:35;;;;;;;7.60;3.78;;;;;;;12.75;76.84;94895.16;4807460;29;20481;-76
2023/10/26 11:08:05;;;;;;;10.23;5.72;;;;;;;12.73;76.56;94907.69;4807559;29;20089;-76
2023/10/26 11:10:32;;;;;;;9.75;7.05;;;;;;;12.69;76.66;94901.34;4808004;29;20059;-76
2023/10/26 11:13:00;;;;;;;7.95;5.47;;;;;;;12.67;77.38;94906.00;4807214;29;20090;-76
2023/10/26 11:15:32;;;;;;;8.10;4.20;;;;;;;12.69;79.27;94921.47;4807342;29;20137;-76
2023/10/26 11:18:00;;;;;;;5.17;2.80;;;;;;;12.72;78.83;94923.63;4807426;29;20066;-76
2023/10/26 11:20:36;;;;;;;0.73;0.68;;;;;;;12.71;77.75;94906.34;4807428;29;20054;-76
2023/10/26 11:23:05;;;;;;;0.30;0.30;;;;;;;12.71;77.68;94893.25;4807310;29;20058;-76
2023/10/26 11:25:33;;;;;;;0.95;0.28;;;;;;;12.67;77.34;94890.31;4806870;29;20054;-76
2023/10/26 11:28:00;;;;;;;1.42;0.50;;;;;;;12.64;77.72;94888.19;4807523;29;20069;-76
2023/10/26 11:30:28;;;;;;;2.85;0.55;;;;;;;12.62;78.14;94890.25;4807155;29;20054;-76
2023/10/26 11:32:56;;;;;;;0.55;0.52;;;;;;;12.60;78.47;94884.44;4807101;29;20131;-76
2023/10/26 11:35:25;;;;;;;0.70;0.50;;;;;;;12.58;78.71;94881.28;4806721;29;20066;-77
2023/10/26 11:37:55;;;;;;;1.50;0.75;;;;;;;12.61;79.10;94893.88;4806951;29;20565;-76
2023/10/26 11:40:31;;;;;;;2.72;1.27;;;;;;;12.61;80.28;94877.38;4807244;29;20058;-76
2023/10/26 11:43:00;;;;;;;0.60;0.60;;;;;;;12.63;79.26;94872.72;4806896;29;20584;-76